Samskip Ice — C6SO4 — position and weather

sailwx.info

Track history (hours):
 
Tides and Currents Weather Stations Pressure Air Temp Water Temp Dewpoint Dewpoint Depression Visibility Wind Speed Wind Dir Waves Ship Positions

Samskip Ice

Last reported at 2017-Jul-15 07:45 UTC. Time now 2017-Jul-23 10:54 UTC.
Position N 69°33' E 015°00'.
Warning: this ship's position is 8 days out of date.

Length 86 m; draft 5.7 m.

Type: Cargo ship. MMSI: 311411000.

Date/timePositionNaut miles runAvg speedWind from/ knotsBaromVisibWave heightAir tempDewpointWater temp
2017-Jul-15 07:45N 69°33' E 015°00'311.8
2017-Jul-15 07:30N 69°33' E 015°08'611.6
2017-Jul-15 07:00N 69°34' E 015°25'612.0
2017-Jul-15 06:30N 69°35' E 015°42'612.3
2017-Jul-15 06:00N 69°36' E 015°59'612.9
2017-Jul-15 05:30N 69°36' E 016°18'713.0
2017-Jul-15 05:00N 69°37' E 016°37'613.1
2017-Jul-15 04:30N 69°37' E 016°55'713.6
2017-Jul-15 04:00N 69°38' E 017°14'713.5
2017-Jul-15 03:30N 69°39' E 017°34'612.9
2017-Jul-15 03:00N 69°37' E 017°51'713.8
2017-Jul-15 02:30N 69°32' E 018°05'611.6
2017-Jul-15 02:00N 69°31' E 018°21'611.6
2017-Jul-15 01:30N 69°33' E 018°37'5 9.7
2017-Jul-15 01:00N 69°35' E 018°50'4 7.0
2017-Jul-15 00:29N 69°38' E 018°57'0 0.0
2017-Jul-14 23:59N 69°38' E 018°57'0 0.0
2017-Jul-14 23:29N 69°38' E 018°57'0 0.0
2017-Jul-14 22:59N 69°38' E 018°57'0 0.0
2017-Jul-14 22:29N 69°38' E 018°57'0 0.0
2017-Jul-14 21:59N 69°38' E 018°57'0 0.0
2017-Jul-14 21:29N 69°38' E 018°57'0 0.0
2017-Jul-14 20:59N 69°38' E 018°57'0 0.0
2017-Jul-14 20:29N 69°38' E 018°57'0 0.0
2017-Jul-14 19:59N 69°38' E 018°57'0 0.0
2017-Jul-14 19:29N 69°38' E 018°57'0 0.0
2017-Jul-14 18:59N 69°38' E 018°57'0 0.0
2017-Jul-14 18:29N 69°38' E 018°57'0 0.0
2017-Jul-14 17:59N 69°38' E 018°57'0 0.0
2017-Jul-14 17:29N 69°38' E 018°57'0 0.0
2017-Jul-14 16:59N 69°38' E 018°57'0 0.0
2017-Jul-14 16:29N 69°38' E 018°57'0 0.0
2017-Jul-14 15:59N 69°38' E 018°57'0 0.0
2017-Jul-14 15:29N 69°38' E 018°57'0 0.0
2017-Jul-14 14:59N 69°38' E 018°57'0 0.0
2017-Jul-14 14:29N 69°38' E 018°57'0 0.0
2017-Jul-14 11:28N 69°38' E 018°57'0 0.2
2017-Jul-14 10:58N 69°38' E 018°57'0 0.0
2017-Jul-14 10:28N 69°38' E 018°57'0 0.0
2017-Jul-14 09:58N 69°38' E 018°57'0 0.0
2017-Jul-14 09:28N 69°38' E 018°57'0 0.0
2017-Jul-14 08:58N 69°38' E 018°57'0 0.0
2017-Jul-14 08:28N 69°38' E 018°57'0 0.0
2017-Jul-14 07:58N 69°38' E 018°57'0 0.0
2017-Jul-14 07:28N 69°38' E 018°57'0 0.0
2017-Jul-14 06:58N 69°38' E 018°57'0 0.1
2017-Jul-14 06:30N 69°38' E 018°57'5 9.5
2017-Jul-14 06:00N 69°34' E 018°48'611.0
2017-Jul-14 05:30N 69°32' E 018°33'612.3
2017-Jul-14 04:59N 69°31' E 018°16'510.5
2017-Jul-14 04:30N 69°32' E 018°02'4 8.7
2017-Jul-14 04:00N 69°35' E 017°54'5 9.1
2017-Jul-14 03:30N 69°38' E 017°44'5 9.2
2017-Jul-14 03:00N 69°39' E 017°32'1 1.5
2017-Jul-14 02:30N 69°40' E 017°30'1 1.5
2017-Jul-14 01:59N 69°41' E 017°30'1 1.4
2017-Jul-14 01:30N 69°41' E 017°31'1 1.4
2017-Jul-14 01:00N 69°42' E 017°31'1 1.3
2017-Jul-14 00:30N 69°43' E 017°31'1 1.2
2017-Jul-14 00:00N 69°43' E 017°31'1 1.2
2017-Jul-13 23:30N 69°44' E 017°30'1 1.0
2017-Jul-13 23:00N 69°44' E 017°30'0 0.9
2017-Jul-13 22:30N 69°45' E 017°30'0 0.8
2017-Jul-13 22:00N 69°45' E 017°30'0 0.8
2017-Jul-13 21:30N 69°46' E 017°30'0 0.7
2017-Jul-13 21:00N 69°46' E 017°30'0 0.6
2017-Jul-13 20:30N 69°46' E 017°31'0 0.5
2017-Jul-13 20:00N 69°47' E 017°31'0 0.6
2017-Jul-13 19:30N 69°47' E 017°31'0 0.7
2017-Jul-13 19:00N 69°47' E 017°31'2 4.2
2017-Jul-13 18:30N 69°45' E 017°30'511.1
2017-Jul-13 18:00N 69°40' E 017°23'0 1.0
2017-Jul-13 17:30N 69°41' E 017°24'0 1.0
2017-Jul-13 17:00N 69°41' E 017°24'1 1.0
2017-Jul-13 16:30N 69°42' E 017°24'0 1.0
2017-Jul-13 16:00N 69°42' E 017°24'0 0.9
2017-Jul-13 15:29N 69°43' E 017°25'0 1.0
2017-Jul-13 15:00N 69°43' E 017°25'1 1.0
2017-Jul-13 14:30N 69°44' E 017°25'0 1.0
2017-Jul-13 14:00N 69°44' E 017°25'1 1.0
2017-Jul-13 13:29N 69°45' E 017°25'0 1.0
2017-Jul-13 13:00N 69°45' E 017°26'0 1.0
2017-Jul-13 12:30N 69°46' E 017°26'0 0.9
2017-Jul-13 12:00N 69°46' E 017°25'0 0.9
2017-Jul-13 11:30N 69°46' E 017°25'0 0.8
2017-Jul-13 11:00N 69°47' E 017°25'0 0.5
2017-Jul-13 10:30N 69°47' E 017°25'3 5.5
2017-Jul-13 10:00N 69°45' E 017°19'5 9.1
2017-Jul-13 09:30N 69°42' E 017°09'5 9.0
2017-Jul-13 09:00N 69°39' E 016°59'4 9.0
2017-Jul-13 08:30N 69°36' E 016°50'5 8.9
2017-Jul-13 08:00N 69°34' E 016°40'4 8.8
2017-Jul-13 07:30N 69°31' E 016°29'4 8.8
2017-Jul-13 07:00N 69°29' E 016°18'5 9.0
2017-Jul-13 06:30N 69°26' E 016°08'510.3
2017-Jul-13 06:00N 69°24' E 015°56'510.8
2017-Jul-13 05:30N 69°20' E 015°43'510.6
2017-Jul-13 05:00N 69°17' E 015°32'510.9
2017-Jul-13 04:30N 69°13' E 015°20'511.0
2017-Jul-13 04:00N 69°10' E 015°09'510.9
2017-Jul-13 03:30N 69°06' E 014°57'510.8
2017-Jul-13 03:00N 69°03' E 014°46'510.8
2017-Jul-13 02:30N 68°59' E 014°35'610.9
2017-Jul-13 02:00N 68°55' E 014°24'511.0
2017-Jul-13 01:30N 68°51' E 014°14'510.7
2017-Jul-13 01:00N 68°47' E 014°05'510.6
2017-Jul-13 00:30N 68°43' E 013°56'510.8
2017-Jul-12 23:59N 68°38' E 013°46'510.5
2017-Jul-12 23:30N 68°34' E 013°37'510.5
2017-Jul-12 23:00N 68°30' E 013°28'510.6
2017-Jul-12 22:30N 68°26' E 013°20'510.7
2017-Jul-12 22:00N 68°22' E 013°11'510.7
2017-Jul-12 21:30N 68°18' E 013°01'610.8
2017-Jul-12 21:00N 68°13' E 012°52'510.8
2017-Jul-12 20:30N 68°09' E 012°44'610.8
2017-Jul-12 20:00N 68°05' E 012°36'511.0
2017-Jul-12 19:30N 68°00' E 012°27'611.2
2017-Jul-12 19:00N 67°56' E 012°18'35912.0
2017-Jul-11 13:03N 62°42' E 005°18'112.5
2017-Jul-11 13:00N 62°41' E 005°19'1 1.2
2017-Jul-11 12:30N 62°41' E 005°21'0 0.2
2017-Jul-11 12:00N 62°41' E 005°21'0 0.2
2017-Jul-11 11:30N 62°41' E 005°20'0 0.2
2017-Jul-11 11:00N 62°41' E 005°20'0 0.4
2017-Jul-11 10:30N 62°42' E 005°20'0 0.6
2017-Jul-11 10:00N 62°42' E 005°21'0 0.8
2017-Jul-11 09:30N 62°42' E 005°21'0 0.7
2017-Jul-11 09:00N 62°43' E 005°21'0 0.7
2017-Jul-11 08:30N 62°43' E 005°20'7 0.5
2017-Jul-10 16:10N 62°48' E 005°33'1 9.1
2017-Jul-10 16:00N 62°48' E 005°36'5 8.9
2017-Jul-10 15:30N 62°45' E 005°44'1 2.3
2017-Jul-10 15:00N 62°45' E 005°42'1 2.3
2017-Jul-10 14:30N 62°45' E 005°39'1 2.3
2017-Jul-10 14:00N 62°44' E 005°37'1 2.2
2017-Jul-10 13:30N 62°44' E 005°35'1 2.1
2017-Jul-10 13:00N 62°43' E 005°33'1 2.1
2017-Jul-10 12:30N 62°43' E 005°31'1 2.0
2017-Jul-10 12:00N 62°42' E 005°29'1 1.9
2017-Jul-10 11:30N 62°42' E 005°27'3 6.1
2017-Jul-10 11:00N 62°40' E 005°33'4 8.6
2017-Jul-10 10:30N 62°38' E 005°41'1 1.8
2017-Jul-10 10:00N 62°37' E 005°39'1 2.0
2017-Jul-10 09:30N 62°37' E 005°37'1 1.9
2017-Jul-10 09:00N 62°37' E 005°35'1 1.1
2017-Jul-10 08:30N 62°36' E 005°35'1 1.3
2017-Jul-10 08:00N 62°36' E 005°35'611.4
2017-Jul-10 07:29N 62°31' E 005°29'613.2
2017-Jul-10 07:00N 62°26' E 005°21'713.3
2017-Jul-10 06:30N 62°20' E 005°11'713.1
2017-Jul-10 06:00N 62°15' E 005°03'713.1
2017-Jul-10 05:30N 62°10' E 004°55'613.1
2017-Jul-10 05:00N 62°04' E 004°47'712.9
2017-Jul-10 04:30N 61°59' E 004°41'613.1
2017-Jul-10 04:00N 61°52' E 004°36'612.9
2017-Jul-10 03:30N 61°46' E 004°33'612.6
2017-Jul-10 03:00N 61°40' E 004°29'612.6
2017-Jul-10 02:30N 61°34' E 004°27'612.6
2017-Jul-10 01:59N 61°28' E 004°26'612.9
2017-Jul-10 01:30N 61°21' E 004°25'713.2
2017-Jul-10 01:00N 61°15' E 004°24'713.5
2017-Jul-10 00:30N 61°08' E 004°21'713.4
2017-Jul-10 00:00N 61°02' E 004°19'713.1
2017-Jul-09 23:30N 60°55' E 004°17'14313.5
2017-Jul-09 12:55N 58°32' E 004°21'613.6
2017-Jul-09 12:30N 58°27' E 004°21'32013.1
2017-Jul-08 12:08N 53°06' E 004°31'212.3
2017-Jul-08 12:00N 53°05' E 004°31'612.2
2017-Jul-08 11:29N 52°59' E 004°28'611.9
2017-Jul-08 11:00N 52°53' E 004°25'611.6
2017-Jul-08 10:30N 52°48' E 004°23'612.0
2017-Jul-08 10:00N 52°42' E 004°21'611.6
2017-Jul-08 09:30N 52°36' E 004°21'612.0
2017-Jul-08 09:00N 52°31' E 004°26'611.6
2017-Jul-08 08:30N 52°28' E 004°34'1 2.6
2017-Jul-08 08:00N 52°28' E 004°36'0 0.0
2017-Jul-08 07:30N 52°28' E 004°36'0 0.8
2017-Jul-08 07:00N 52°28' E 004°37'1 2.3
2017-Jul-08 06:30N 52°28' E 004°39'1 1.6
2017-Jul-08 06:00N 52°28' E 004°40'0 0.0
2017-Jul-08 05:30N 52°28' E 004°40'0 0.0
2017-Jul-08 05:00N 52°28' E 004°40'0 0.0
2017-Jul-08 04:30N 52°28' E 004°40'0 0.0
2017-Jul-08 04:00N 52°28' E 004°40'0 0.0
2017-Jul-08 03:30N 52°28' E 004°40'0 0.0
2017-Jul-08 03:00N 52°28' E 004°40'0 0.0
2017-Jul-08 02:30N 52°28' E 004°40'0 0.0
2017-Jul-08 01:59N 52°28' E 004°40'0 0.0
2017-Jul-08 01:29N 52°28' E 004°40'0 0.0
2017-Jul-08 00:59N 52°28' E 004°40'0 0.0
2017-Jul-08 00:29N 52°28' E 004°40'0 0.0
2017-Jul-07 23:59N 52°28' E 004°40'0 0.0
2017-Jul-07 23:29N 52°28' E 004°40'0 0.0
2017-Jul-07 22:59N 52°28' E 004°40'0 0.0
2017-Jul-07 22:29N 52°28' E 004°40'0 0.0
2017-Jul-07 21:59N 52°28' E 004°40'0 0.0
2017-Jul-07 21:29N 52°28' E 004°40'0 0.0
2017-Jul-07 20:59N 52°28' E 004°40'0 0.0
2017-Jul-07 20:29N 52°28' E 004°40'0 0.0
2017-Jul-07 19:59N 52°28' E 004°40'0 0.0
2017-Jul-07 19:26N 52°28' E 004°40'0 0.0
2017-Jul-07 18:59N 52°28' E 004°40'0 0.0
2017-Jul-07 18:26N 52°28' E 004°40'0 0.0
2017-Jul-07 17:59N 52°28' E 004°40'0 0.0
2017-Jul-07 17:29N 52°28' E 004°40'0 0.0
2017-Jul-07 16:59N 52°28' E 004°40'0 0.0
2017-Jul-07 16:29N 52°28' E 004°40'0 0.0
2017-Jul-07 15:59N 52°28' E 004°40'0 0.0
2017-Jul-07 15:29N 52°28' E 004°40'0 0.0
2017-Jul-07 14:59N 52°28' E 004°40'0 0.0
2017-Jul-07 13:59N 52°28' E 004°40'0 0.0
2017-Jul-07 13:29N 52°28' E 004°40'0 0.0
2017-Jul-07 12:59N 52°28' E 004°40'0 0.0
2017-Jul-07 12:29N 52°28' E 004°40'0 0.0
2017-Jul-07 11:59N 52°28' E 004°40'0 0.0
2017-Jul-07 11:29N 52°28' E 004°40'0 0.0
2017-Jul-07 10:59N 52°28' E 004°40'0 0.0
2017-Jul-07 10:29N 52°28' E 004°40'0 0.0
2017-Jul-07 09:59N 52°28' E 004°40'0 0.0
2017-Jul-07 09:26N 52°28' E 004°40'0 0.0
2017-Jul-07 08:59N 52°28' E 004°40'0 0.0
2017-Jul-07 08:29N 52°28' E 004°40'0 0.0
2017-Jul-07 07:59N 52°28' E 004°40'0 0.0
2017-Jul-07 07:29N 52°28' E 004°40'0 0.0
2017-Jul-07 06:59N 52°28' E 004°40'0 0.0
2017-Jul-07 06:29N 52°28' E 004°40'0 0.0
2017-Jul-07 05:59N 52°28' E 004°40'0 0.0
2017-Jul-07 05:29N 52°28' E 004°40'0 0.0
2017-Jul-07 04:59N 52°28' E 004°40'0 0.0
2017-Jul-07 04:29N 52°28' E 004°40'0 0.0
2017-Jul-07 03:59N 52°28' E 004°40'0 0.0
2017-Jul-07 03:29N 52°28' E 004°40'0 0.0
2017-Jul-07 02:59N 52°28' E 004°40'0 0.0
2017-Jul-07 02:26N 52°28' E 004°40'0 0.0
2017-Jul-07 01:59N 52°28' E 004°40'0 0.0
2017-Jul-07 01:29N 52°28' E 004°40'0 0.0
2017-Jul-07 00:59N 52°28' E 004°40'0 0.0
2017-Jul-07 00:29N 52°28' E 004°40'0 0.0
2017-Jul-06 23:59N 52°28' E 004°40'0 0.0
2017-Jul-06 23:29N 52°28' E 004°40'0 0.0
2017-Jul-06 23:14N 52°28' E 004°40'24 0.6
2017-Jul-05 08:27N 52°26' E 004°01'0 0.0
2017-Jul-05 07:57N 52°26' E 004°01'  
Track history (hours):
 
Tides and Currents Weather Stations Pressure Air Temp Water Temp Dewpoint Dewpoint Depression Visibility Wind Speed Wind Dir Waves Ship Positions

Samskip Ice

Last reported at 2017-Jul-15 07:45 UTC. Time now 2017-Jul-23 10:54 UTC.
Position N 69°33' E 015°00'.
Warning: this ship's position is 8 days out of date.

Length 86 m; draft 5.7 m.

Type: Cargo ship. MMSI: 311411000.

Date/timePositionNaut miles runAvg speedWind from/ knotsBaromVisibWave heightAir tempDewpointWater temp
2017-Jul-15 07:45N 69°33' E 015°00'311.8
2017-Jul-15 07:30N 69°33' E 015°08'611.6
2017-Jul-15 07:00N 69°34' E 015°25'612.0
2017-Jul-15 06:30N 69°35' E 015°42'612.3
2017-Jul-15 06:00N 69°36' E 015°59'612.9
2017-Jul-15 05:30N 69°36' E 016°18'713.0
2017-Jul-15 05:00N 69°37' E 016°37'613.1
2017-Jul-15 04:30N 69°37' E 016°55'713.6
2017-Jul-15 04:00N 69°38' E 017°14'713.5
2017-Jul-15 03:30N 69°39' E 017°34'612.9
2017-Jul-15 03:00N 69°37' E 017°51'713.8
2017-Jul-15 02:30N 69°32' E 018°05'611.6
2017-Jul-15 02:00N 69°31' E 018°21'611.6
2017-Jul-15 01:30N 69°33' E 018°37'5 9.7
2017-Jul-15 01:00N 69°35' E 018°50'4 7.0
2017-Jul-15 00:29N 69°38' E 018°57'0 0.0
2017-Jul-14 23:59N 69°38' E 018°57'0 0.0
2017-Jul-14 23:29N 69°38' E 018°57'0 0.0
2017-Jul-14 22:59N 69°38' E 018°57'0 0.0
2017-Jul-14 22:29N 69°38' E 018°57'0 0.0
2017-Jul-14 21:59N 69°38' E 018°57'0 0.0
2017-Jul-14 21:29N 69°38' E 018°57'0 0.0
2017-Jul-14 20:59N 69°38' E 018°57'0 0.0
2017-Jul-14 20:29N 69°38' E 018°57'0 0.0
2017-Jul-14 19:59N 69°38' E 018°57'0 0.0
2017-Jul-14 19:29N 69°38' E 018°57'0 0.0
2017-Jul-14 18:59N 69°38' E 018°57'0 0.0
2017-Jul-14 18:29N 69°38' E 018°57'0 0.0
2017-Jul-14 17:59N 69°38' E 018°57'0 0.0
2017-Jul-14 17:29N 69°38' E 018°57'0 0.0
2017-Jul-14 16:59N 69°38' E 018°57'0 0.0
2017-Jul-14 16:29N 69°38' E 018°57'0 0.0
2017-Jul-14 15:59N 69°38' E 018°57'0 0.0
2017-Jul-14 15:29N 69°38' E 018°57'0 0.0
2017-Jul-14 14:59N 69°38' E 018°57'0 0.0
2017-Jul-14 14:29N 69°38' E 018°57'0 0.0
2017-Jul-14 11:28N 69°38' E 018°57'0 0.2
2017-Jul-14 10:58N 69°38' E 018°57'0 0.0
2017-Jul-14 10:28N 69°38' E 018°57'0 0.0
2017-Jul-14 09:58N 69°38' E 018°57'0 0.0
2017-Jul-14 09:28N 69°38' E 018°57'0 0.0
2017-Jul-14 08:58N 69°38' E 018°57'0 0.0
2017-Jul-14 08:28N 69°38' E 018°57'0 0.0
2017-Jul-14 07:58N 69°38' E 018°57'0 0.0
2017-Jul-14 07:28N 69°38' E 018°57'0 0.0
2017-Jul-14 06:58N 69°38' E 018°57'0 0.1
2017-Jul-14 06:30N 69°38' E 018°57'5 9.5
2017-Jul-14 06:00N 69°34' E 018°48'611.0
2017-Jul-14 05:30N 69°32' E 018°33'612.3
2017-Jul-14 04:59N 69°31' E 018°16'510.5
2017-Jul-14 04:30N 69°32' E 018°02'4 8.7
2017-Jul-14 04:00N 69°35' E 017°54'5 9.1
2017-Jul-14 03:30N 69°38' E 017°44'5 9.2
2017-Jul-14 03:00N 69°39' E 017°32'1 1.5
2017-Jul-14 02:30N 69°40' E 017°30'1 1.5
2017-Jul-14 01:59N 69°41' E 017°30'1 1.4
2017-Jul-14 01:30N 69°41' E 017°31'1 1.4
2017-Jul-14 01:00N 69°42' E 017°31'1 1.3
2017-Jul-14 00:30N 69°43' E 017°31'1 1.2
2017-Jul-14 00:00N 69°43' E 017°31'1 1.2
2017-Jul-13 23:30N 69°44' E 017°30'1 1.0
2017-Jul-13 23:00N 69°44' E 017°30'0 0.9
2017-Jul-13 22:30N 69°45' E 017°30'0 0.8
2017-Jul-13 22:00N 69°45' E 017°30'0 0.8
2017-Jul-13 21:30N 69°46' E 017°30'0 0.7
2017-Jul-13 21:00N 69°46' E 017°30'0 0.6
2017-Jul-13 20:30N 69°46' E 017°31'0 0.5
2017-Jul-13 20:00N 69°47' E 017°31'0 0.6
2017-Jul-13 19:30N 69°47' E 017°31'0 0.7
2017-Jul-13 19:00N 69°47' E 017°31'2 4.2
2017-Jul-13 18:30N 69°45' E 017°30'511.1
2017-Jul-13 18:00N 69°40' E 017°23'0 1.0
2017-Jul-13 17:30N 69°41' E 017°24'0 1.0
2017-Jul-13 17:00N 69°41' E 017°24'1 1.0
2017-Jul-13 16:30N 69°42' E 017°24'0 1.0
2017-Jul-13 16:00N 69°42' E 017°24'0 0.9
2017-Jul-13 15:29N 69°43' E 017°25'0 1.0
2017-Jul-13 15:00N 69°43' E 017°25'1 1.0
2017-Jul-13 14:30N 69°44' E 017°25'0 1.0
2017-Jul-13 14:00N 69°44' E 017°25'1 1.0
2017-Jul-13 13:29N 69°45' E 017°25'0 1.0
2017-Jul-13 13:00N 69°45' E 017°26'0 1.0
2017-Jul-13 12:30N 69°46' E 017°26'0 0.9
2017-Jul-13 12:00N 69°46' E 017°25'0 0.9
2017-Jul-13 11:30N 69°46' E 017°25'0 0.8
2017-Jul-13 11:00N 69°47' E 017°25'0 0.5
2017-Jul-13 10:30N 69°47' E 017°25'3 5.5
2017-Jul-13 10:00N 69°45' E 017°19'5 9.1
2017-Jul-13 09:30N 69°42' E 017°09'5 9.0
2017-Jul-13 09:00N 69°39' E 016°59'4 9.0
2017-Jul-13 08:30N 69°36' E 016°50'5 8.9
2017-Jul-13 08:00N 69°34' E 016°40'4 8.8
2017-Jul-13 07:30N 69°31' E 016°29'4 8.8
2017-Jul-13 07:00N 69°29' E 016°18'5 9.0
2017-Jul-13 06:30N 69°26' E 016°08'510.3
2017-Jul-13 06:00N 69°24' E 015°56'510.8
2017-Jul-13 05:30N 69°20' E 015°43'510.6
2017-Jul-13 05:00N 69°17' E 015°32'510.9
2017-Jul-13 04:30N 69°13' E 015°20'511.0
2017-Jul-13 04:00N 69°10' E 015°09'510.9
2017-Jul-13 03:30N 69°06' E 014°57'510.8
2017-Jul-13 03:00N 69°03' E 014°46'510.8
2017-Jul-13 02:30N 68°59' E 014°35'610.9
2017-Jul-13 02:00N 68°55' E 014°24'511.0
2017-Jul-13 01:30N 68°51' E 014°14'510.7
2017-Jul-13 01:00N 68°47' E 014°05'510.6
2017-Jul-13 00:30N 68°43' E 013°56'510.8
2017-Jul-12 23:59N 68°38' E 013°46'510.5
2017-Jul-12 23:30N 68°34' E 013°37'510.5
2017-Jul-12 23:00N 68°30' E 013°28'510.6
2017-Jul-12 22:30N 68°26' E 013°20'510.7
2017-Jul-12 22:00N 68°22' E 013°11'510.7
2017-Jul-12 21:30N 68°18' E 013°01'610.8
2017-Jul-12 21:00N 68°13' E 012°52'510.8
2017-Jul-12 20:30N 68°09' E 012°44'610.8
2017-Jul-12 20:00N 68°05' E 012°36'511.0
2017-Jul-12 19:30N 68°00' E 012°27'611.2
2017-Jul-12 19:00N 67°56' E 012°18'35912.0
2017-Jul-11 13:03N 62°42' E 005°18'112.5
2017-Jul-11 13:00N 62°41' E 005°19'1 1.2
2017-Jul-11 12:30N 62°41' E 005°21'0 0.2
2017-Jul-11 12:00N 62°41' E 005°21'0 0.2
2017-Jul-11 11:30N 62°41' E 005°20'0 0.2
2017-Jul-11 11:00N 62°41' E 005°20'0 0.4
2017-Jul-11 10:30N 62°42' E 005°20'0 0.6
2017-Jul-11 10:00N 62°42' E 005°21'0 0.8
2017-Jul-11 09:30N 62°42' E 005°21'0 0.7
2017-Jul-11 09:00N 62°43' E 005°21'0 0.7
2017-Jul-11 08:30N 62°43' E 005°20'7 0.5
2017-Jul-10 16:10N 62°48' E 005°33'1 9.1
2017-Jul-10 16:00N 62°48' E 005°36'5 8.9
2017-Jul-10 15:30N 62°45' E 005°44'1 2.3
2017-Jul-10 15:00N 62°45' E 005°42'1 2.3
2017-Jul-10 14:30N 62°45' E 005°39'1 2.3
2017-Jul-10 14:00N 62°44' E 005°37'1 2.2
2017-Jul-10 13:30N 62°44' E 005°35'1 2.1
2017-Jul-10 13:00N 62°43' E 005°33'1 2.1
2017-Jul-10 12:30N 62°43' E 005°31'1 2.0
2017-Jul-10 12:00N 62°42' E 005°29'1 1.9
2017-Jul-10 11:30N 62°42' E 005°27'3 6.1
2017-Jul-10 11:00N 62°40' E 005°33'4 8.6
2017-Jul-10 10:30N 62°38' E 005°41'1 1.8
2017-Jul-10 10:00N 62°37' E 005°39'1 2.0
2017-Jul-10 09:30N 62°37' E 005°37'1 1.9
2017-Jul-10 09:00N 62°37' E 005°35'1 1.1
2017-Jul-10 08:30N 62°36' E 005°35'1 1.3
2017-Jul-10 08:00N 62°36' E 005°35'611.4
2017-Jul-10 07:29N 62°31' E 005°29'613.2
2017-Jul-10 07:00N 62°26' E 005°21'713.3
2017-Jul-10 06:30N 62°20' E 005°11'713.1
2017-Jul-10 06:00N 62°15' E 005°03'713.1
2017-Jul-10 05:30N 62°10' E 004°55'613.1
2017-Jul-10 05:00N 62°04' E 004°47'712.9
2017-Jul-10 04:30N 61°59' E 004°41'613.1
2017-Jul-10 04:00N 61°52' E 004°36'612.9
2017-Jul-10 03:30N 61°46' E 004°33'612.6
2017-Jul-10 03:00N 61°40' E 004°29'612.6
2017-Jul-10 02:30N 61°34' E 004°27'612.6
2017-Jul-10 01:59N 61°28' E 004°26'612.9
2017-Jul-10 01:30N 61°21' E 004°25'713.2
2017-Jul-10 01:00N 61°15' E 004°24'713.5
2017-Jul-10 00:30N 61°08' E 004°21'713.4
2017-Jul-10 00:00N 61°02' E 004°19'713.1
2017-Jul-09 23:30N 60°55' E 004°17'14313.5
2017-Jul-09 12:55N 58°32' E 004°21'613.6
2017-Jul-09 12:30N 58°27' E 004°21'32013.1
2017-Jul-08 12:08N 53°06' E 004°31'212.3
2017-Jul-08 12:00N 53°05' E 004°31'612.2
2017-Jul-08 11:29N 52°59' E 004°28'611.9
2017-Jul-08 11:00N 52°53' E 004°25'611.6
2017-Jul-08 10:30N 52°48' E 004°23'612.0
2017-Jul-08 10:00N 52°42' E 004°21'611.6
2017-Jul-08 09:30N 52°36' E 004°21'612.0
2017-Jul-08 09:00N 52°31' E 004°26'611.6
2017-Jul-08 08:30N 52°28' E 004°34'1 2.6
2017-Jul-08 08:00N 52°28' E 004°36'0 0.0
2017-Jul-08 07:30N 52°28' E 004°36'0 0.8
2017-Jul-08 07:00N 52°28' E 004°37'1 2.3
2017-Jul-08 06:30N 52°28' E 004°39'1 1.6
2017-Jul-08 06:00N 52°28' E 004°40'0 0.0
2017-Jul-08 05:30N 52°28' E 004°40'0 0.0
2017-Jul-08 05:00N 52°28' E 004°40'0 0.0
2017-Jul-08 04:30N 52°28' E 004°40'0 0.0
2017-Jul-08 04:00N 52°28' E 004°40'0 0.0
2017-Jul-08 03:30N 52°28' E 004°40'0 0.0
2017-Jul-08 03:00N 52°28' E 004°40'0 0.0
2017-Jul-08 02:30N 52°28' E 004°40'0 0.0
2017-Jul-08 01:59N 52°28' E 004°40'0 0.0
2017-Jul-08 01:29N 52°28' E 004°40'0 0.0
2017-Jul-08 00:59N 52°28' E 004°40'0 0.0
2017-Jul-08 00:29N 52°28' E 004°40'0 0.0
2017-Jul-07 23:59N 52°28' E 004°40'0 0.0
2017-Jul-07 23:29N 52°28' E 004°40'0 0.0
2017-Jul-07 22:59N 52°28' E 004°40'0 0.0
2017-Jul-07 22:29N 52°28' E 004°40'0 0.0
2017-Jul-07 21:59N 52°28' E 004°40'0 0.0
2017-Jul-07 21:29N 52°28' E 004°40'0 0.0
2017-Jul-07 20:59N 52°28' E 004°40'0 0.0
2017-Jul-07 20:29N 52°28' E 004°40'0 0.0
2017-Jul-07 19:59N 52°28' E 004°40'0 0.0
2017-Jul-07 19:26N 52°28' E 004°40'0 0.0
2017-Jul-07 18:59N 52°28' E 004°40'0 0.0
2017-Jul-07 18:26N 52°28' E 004°40'0 0.0
2017-Jul-07 17:59N 52°28' E 004°40'0 0.0
2017-Jul-07 17:29N 52°28' E 004°40'0 0.0
2017-Jul-07 16:59N 52°28' E 004°40'0 0.0
2017-Jul-07 16:29N 52°28' E 004°40'0 0.0
2017-Jul-07 15:59N 52°28' E 004°40'0 0.0
2017-Jul-07 15:29N 52°28' E 004°40'0 0.0
2017-Jul-07 14:59N 52°28' E 004°40'0 0.0
2017-Jul-07 13:59N 52°28' E 004°40'0 0.0
2017-Jul-07 13:29N 52°28' E 004°40'0 0.0
2017-Jul-07 12:59N 52°28' E 004°40'0 0.0
2017-Jul-07 12:29N 52°28' E 004°40'0 0.0
2017-Jul-07 11:59N 52°28' E 004°40'0 0.0
2017-Jul-07 11:29N 52°28' E 004°40'0 0.0
2017-Jul-07 10:59N 52°28' E 004°40'0 0.0
2017-Jul-07 10:29N 52°28' E 004°40'0 0.0
2017-Jul-07 09:59N 52°28' E 004°40'0 0.0
2017-Jul-07 09:26N 52°28' E 004°40'0 0.0
2017-Jul-07 08:59N 52°28' E 004°40'0 0.0
2017-Jul-07 08:29N 52°28' E 004°40'0 0.0
2017-Jul-07 07:59N 52°28' E 004°40'0 0.0
2017-Jul-07 07:29N 52°28' E 004°40'0 0.0
2017-Jul-07 06:59N 52°28' E 004°40'0 0.0
2017-Jul-07 06:29N 52°28' E 004°40'0 0.0
2017-Jul-07 05:59N 52°28' E 004°40'0 0.0
2017-Jul-07 05:29N 52°28' E 004°40'0 0.0
2017-Jul-07 04:59N 52°28' E 004°40'0 0.0
2017-Jul-07 04:29N 52°28' E 004°40'0 0.0
2017-Jul-07 03:59N 52°28' E 004°40'0 0.0
2017-Jul-07 03:29N 52°28' E 004°40'0 0.0
2017-Jul-07 02:59N 52°28' E 004°40'0 0.0
2017-Jul-07 02:26N 52°28' E 004°40'0 0.0
2017-Jul-07 01:59N 52°28' E 004°40'0 0.0
2017-Jul-07 01:29N 52°28' E 004°40'0 0.0
2017-Jul-07 00:59N 52°28' E 004°40'0 0.0
2017-Jul-07 00:29N 52°28' E 004°40'0 0.0
2017-Jul-06 23:59N 52°28' E 004°40'0 0.0
2017-Jul-06 23:29N 52°28' E 004°40'0 0.0
2017-Jul-06 23:14N 52°28' E 004°40'24 0.6
2017-Jul-05 08:27N 52°26' E 004°01'0 0.0
2017-Jul-05 07:57N 52°26' E 004°01'  

Dump ship's entire track history